Time;durP1;ratioP1;P1;durP2;ratioP2;P2;SDS_P1;SDS_P2;PMS_P1;PMS_P2;Temp;Humidity;BMP_temperature;BMP_pressure;BME280_temperature;BME280_humidity;BME280_pressure;Samples;Min_cycle;Max_cycle;Signal;HPM_P1;HPM_P2
2022/09/27 00:01:08;;;;;;;9.98;0.90;;;9.70;99.90;;;;;;4991342;28;20053;-72
2022/09/27 00:03:33;;;;;;;10.27;0.63;;;9.70;99.90;;;;;;4981611;28;20100;-71
2022/09/27 00:06:03;;;;;;;8.48;0.73;;;9.60;99.90;;;;;;4981038;28;20065;-71
2022/09/27 00:08:28;;;;;;;7.82;0.65;;;9.80;99.90;;;;;;4994237;28;20486;-71
2022/09/27 00:11:01;;;;;;;3.88;0.68;;;9.70;99.90;;;;;;4994374;28;20049;-71
2022/09/27 00:13:28;;;;;;;4.43;0.75;;;9.80;99.90;;;;;;5008876;28;20049;-72
2022/09/27 00:16:03;;;;;;;4.95;0.65;;;9.70;99.90;;;;;;4995336;28;20137;-72
2022/09/27 00:18:30;;;;;;;5.45;0.80;;;9.80;99.90;;;;;;4969679;28;20046;-71
2022/09/27 00:20:56;;;;;;;4.70;0.63;;;9.60;99.90;;;;;;4974019;28;20046;-71
2022/09/27 00:23:22;;;;;;;4.67;0.87;;;9.60;99.90;;;;;;4973119;28;20494;-71
2022/09/27 00:25:58;;;;;;;9.23;0.73;;;9.50;99.90;;;;;;4973674;28;20376;-71
2022/09/27 00:28:24;;;;;;;9.55;0.85;;;9.50;99.90;;;;;;4971124;28;20046;-71
2022/09/27 00:30:51;;;;;;;8.00;1.10;;;9.50;99.90;;;;;;4971908;28;20086;-71
2022/09/27 00:33:16;;;;;;;6.57;0.60;;;9.60;99.90;;;;;;4971049;28;20406;-71
2022/09/27 00:35:43;;;;;;;10.20;0.88;;;9.50;99.90;;;;;;4962223;28;20057;-71
2022/09/27 00:38:09;;;;;;;6.47;0.70;;;9.50;99.90;;;;;;4942641;28;20058;-71
2022/09/27 00:40:35;;;;;;;8.13;0.97;;;9.40;99.90;;;;;;4979206;28;20121;-71
2022/09/27 00:43:00;;;;;;;5.97;0.87;;;9.50;99.90;;;;;;4984874;28;20093;-71
2022/09/27 00:45:26;;;;;;;8.23;0.90;;;9.30;99.90;;;;;;4986658;28;20050;-71
2022/09/27 00:48:00;;;;;;;6.23;0.70;;;9.30;99.90;;;;;;4960278;28;20047;-71
2022/09/27 00:50:31;;;;;;;6.93;0.70;;;9.20;99.90;;;;;;4977586;28;20061;-71
2022/09/27 00:53:02;;;;;;;7.18;0.80;;;9.30;99.90;;;;;;4976641;28;20058;-71
2022/09/27 00:55:50;;;;;;;4.75;0.77;;;9.30;99.90;;;;;;4989395;28;20512;-72
2022/09/27 00:58:20;;;;;;;7.80;0.70;;;9.50;99.90;;;;;;4971835;28;20045;-71
2022/09/27 01:00:50;;;;;;;7.77;0.70;;;9.30;99.90;;;;;;4961013;28;20051;-71
2022/09/27 01:03:28;;;;;;;9.83;1.03;;;9.30;99.90;;;;;;4978502;28;20050;-71
2022/09/27 01:05:54;;;;;;;4.93;0.80;;;9.40;99.90;;;;;;4987467;28;20626;-72
2022/09/27 01:08:20;;;;;;;4.83;0.93;;;9.30;99.90;;;;;;4961063;28;20058;-72
2022/09/27 01:11:18;;;;;;;7.80;0.83;;;9.50;99.90;;;;;;4974938;28;20069;-71
2022/09/27 01:13:55;;;;;;;4.73;0.60;;;9.40;99.90;;;;;;4982915;28;20058;-71
2022/09/27 01:16:46;;;;;;;5.80;0.90;;;9.40;99.90;;;;;;4987448;28;20080;-71
2022/09/27 01:19:40;;;;;;;6.50;0.60;;;9.60;99.90;;;;;;4982954;28;20038;-71
2022/09/27 01:22:21;;;;;;;8.20;0.77;;;9.50;99.90;;;;;;4971460;28;20512;-70
2022/09/27 01:24:52;;;;;;;8.60;0.90;;;9.40;99.90;;;;;;4981016;28;20112;-71
2022/09/27 01:27:20;;;;;;;6.10;0.43;;;9.40;99.90;;;;;;4993266;28;20490;-71
2022/09/27 01:30:01;;;;;;;4.33;0.50;;;9.50;99.90;;;;;;5009150;28;20088;-72
2022/09/27 01:32:50;;;;;;;6.95;0.73;;;9.50;99.90;;;;;;4984197;28;20045;-72
2022/09/27 01:35:21;;;;;;;7.77;0.60;;;9.50;99.90;;;;;;4972929;28;20070;-72
2022/09/27 01:38:00;;;;;;;6.18;0.88;;;9.50;99.90;;;;;;4941276;28;20049;-72
2022/09/27 01:40:39;;;;;;;5.97;0.70;;;9.70;99.90;;;;;;4997927;28;20054;-72
2022/09/27 01:43:28;;;;;;;2.93;0.60;;;9.70;99.90;;;;;;4988382;28;20516;-73
2022/09/27 01:46:01;;;;;;;4.80;0.77;;;9.60;99.90;;;;;;5007752;28;20089;-74
2022/09/27 01:48:35;;;;;;;7.97;0.70;;;9.60;99.90;;;;;;4977569;28;20100;-76
2022/09/27 01:51:11;;;;;;;4.50;0.60;;;9.50;99.90;;;;;;5009523;28;20046;-75
2022/09/27 01:53:39;;;;;;;5.20;0.70;;;9.50;99.90;;;;;;4996856;28;20042;-75
2022/09/27 01:56:11;;;;;;;5.53;0.50;;;9.50;99.90;;;;;;5009312;28;20041;-75
2022/09/27 01:58:52;;;;;;;3.57;0.70;;;9.50;99.90;;;;;;4982876;28;20508;-75
2022/09/27 02:01:20;;;;;;;4.75;0.25;;;9.40;99.90;;;;;;5009295;28;20067;-75
2022/09/27 02:03:50;;;;;;;4.50;0.70;;;9.40;99.90;;;;;;5008694;28;20053;-74
2022/09/27 02:06:23;;;;;;;5.50;0.60;;;9.40;99.90;;;;;;4982039;28;20053;-74
2022/09/27 02:08:56;;;;;;;8.23;0.90;;;9.40;99.90;;;;;;4987967;28;20046;-73
2022/09/27 02:11:22;;;;;;;3.57;0.40;;;9.50;99.90;;;;;;4992073;28;20523;-74
2022/09/27 02:13:54;;;;;;;6.20;0.80;;;9.40;99.90;;;;;;4990818;28;20050;-74
2022/09/27 02:16:37;;;;;;;2.80;0.47;;;9.40;99.90;;;;;;4987230;28;20413;-74
2022/09/27 02:19:05;;;;;;;3.03;0.40;;;9.40;99.90;;;;;;4992982;28;20046;-73
2022/09/27 02:21:47;;;;;;;4.53;0.40;;;9.30;99.90;;;;;;4975899;28;20050;-73
2022/09/27 02:24:18;;;;;;;4.70;0.50;;;9.30;99.90;;;;;;4988118;28;20109;-73
2022/09/27 02:26:47;;;;;;;4.07;0.73;;;9.20;99.90;;;;;;4960593;28;20058;-73
2022/09/27 02:29:19;;;;;;;1.93;0.33;;;9.30;99.90;;;;;;4992447;28;20165;-73
2022/09/27 02:31:45;;;;;;;4.87;0.50;;;9.20;99.90;;;;;;4991941;28;20065;-74
2022/09/27 02:34:18;;;;;;;7.93;0.70;;;9.30;99.90;;;;;;4970968;28;20514;-74
2022/09/27 02:36:44;;;;;;;8.93;1.10;;;9.10;99.90;;;;;;4943951;28;20047;-73
2022/09/27 02:39:11;;;;;;;7.03;0.70;;;9.00;99.90;;;;;;4973648;28;20109;-73
2022/09/27 02:41:37;;;;;;;4.80;0.73;;;9.20;99.90;;;;;;4989137;28;20054;-73
2022/09/27 02:44:08;;;;;;;6.97;0.70;;;9.00;99.90;;;;;;4990661;28;20030;-72
2022/09/27 02:47:01;;;;;;;7.27;0.90;;;9.10;99.90;;;;;;4975715;28;20064;-72
2022/09/27 02:49:30;;;;;;;6.60;0.60;;;9.00;99.90;;;;;;4991910;28;20141;-71
2022/09/27 02:52:13;;;;;;;5.83;0.63;;;9.00;99.90;;;;;;4991477;28;20046;-71
2022/09/27 02:55:07;;;;;;;4.10;0.80;;;9.10;99.90;;;;;;4992484;28;20043;-70
2022/09/27 02:58:13;;;;;;;7.03;0.83;;;9.10;99.90;;;;;;4973329;28;20084;-71
2022/09/27 03:01:12;;;;;;;7.23;1.00;;;9.20;99.90;;;;;;4970357;28;20058;-71
2022/09/27 03:04:05;;;;;;;11.83;1.10;;;9.20;99.90;;;;;;4991339;28;20053;-71
2022/09/27 03:06:33;;;;;;;8.37;1.00;;;9.10;99.90;;;;;;4977073;28;20078;-72
2022/09/27 03:08:58;;;;;;;6.53;0.70;;;9.00;99.90;;;;;;4989116;28;20048;-71
2022/09/27 03:11:24;;;;;;;9.17;1.00;;;9.10;99.90;;;;;;4991265;28;20042;-71
2022/09/27 03:13:50;;;;;;;4.00;0.70;;;9.10;99.90;;;;;;4990106;28;20520;-71
2022/09/27 03:16:15;;;;;;;8.97;0.77;;;9.10;99.90;;;;;;4990255;28;20133;-72
2022/09/27 03:18:42;;;;;;;3.00;0.57;;;8.90;99.90;;;;;;4967416;28;20169;-73
2022/09/27 03:21:08;;;;;;;3.40;0.53;;;9.00;99.90;;;;;;4994188;28;20481;-72
2022/09/27 03:23:33;;;;;;;4.13;0.60;;;8.80;99.90;;;;;;4993678;28;20085;-72
2022/09/27 03:25:59;;;;;;;9.10;0.80;;;8.80;99.90;;;;;;4994166;28;20408;-72
2022/09/27 03:28:25;;;;;;;5.30;0.53;;;8.80;99.90;;;;;;4977086;28;20421;-71
2022/09/27 03:30:51;;;;;;;5.17;0.70;;;8.80;99.90;;;;;;5003853;28;20047;-71
2022/09/27 03:33:16;;;;;;;5.63;0.50;;;8.80;99.90;;;;;;4993614;28;20052;-72
2022/09/27 03:35:42;;;;;;;5.07;0.93;;;8.80;99.90;;;;;;4994131;28;20042;-72
2022/09/27 03:38:08;;;;;;;7.87;1.10;;;8.70;99.90;;;;;;4978630;28;20115;-74
2022/09/27 03:40:35;;;;;;;4.67;0.67;;;8.70;99.90;;;;;;5010393;28;20493;-74
2022/09/27 03:43:00;;;;;;;10.73;0.93;;;8.80;99.90;;;;;;4976579;28;20498;-74
2022/09/27 03:45:26;;;;;;;10.40;1.10;;;8.90;99.90;;;;;;4993797;28;20147;-75
2022/09/27 03:47:53;;;;;;;3.67;0.80;;;8.80;99.90;;;;;;4984227;28;20081;-73
2022/09/27 03:50:18;;;;;;;7.50;0.87;;;8.70;99.90;;;;;;4984973;28;20512;-73
2022/09/27 03:52:44;;;;;;;5.80;1.00;;;8.80;99.90;;;;;;4992849;28;20050;-73
2022/09/27 03:55:11;;;;;;;7.23;0.97;;;8.80;99.90;;;;;;5011315;28;20048;-73
2022/09/27 03:57:37;;;;;;;7.77;1.17;;;8.80;99.90;;;;;;4977076;28;20128;-74
2022/09/27 04:00:05;;;;;;;10.23;1.00;;;8.80;99.90;;;;;;4994130;28;20507;-73
2022/09/27 04:02:31;;;;;;;10.00;0.97;;;8.80;99.90;;;;;;4998123;28;20046;-71
2022/09/27 04:04:57;;;;;;;7.37;0.97;;;8.90;99.90;;;;;;4993382;28;20065;-72
2022/09/27 04:07:22;;;;;;;10.27;0.90;;;8.90;99.90;;;;;;4977258;28;20042;-72
2022/09/27 04:09:48;;;;;;;8.43;1.03;;;9.00;99.90;;;;;;5003635;28;20075;-73
2022/09/27 04:12:14;;;;;;;8.43;1.43;;;8.80;99.90;;;;;;5003968;28;20042;-73
2022/09/27 04:14:40;;;;;;;12.80;1.30;;;8.80;99.90;;;;;;5012362;28;20508;-73
2022/09/27 04:17:07;;;;;;;11.03;1.00;;;8.80;99.90;;;;;;4981447;28;20057;-75
2022/09/27 04:19:32;;;;;;;11.03;1.20;;;8.90;99.90;;;;;;4998867;28;20041;-74
2022/09/27 04:21:58;;;;;;;12.10;0.90;;;9.00;99.90;;;;;;4992797;28;20057;-74
2022/09/27 04:24:24;;;;;;;6.23;1.00;;;8.90;99.90;;;;;;4992116;28;20050;-74
2022/09/27 04:26:50;;;;;;;3.50;0.77;;;8.90;99.90;;;;;;4961267;28;20588;-75
2022/09/27 04:29:16;;;;;;;7.10;1.07;;;8.90;99.90;;;;;;4992296;28;20057;-73
2022/09/27 04:31:43;;;;;;;5.83;1.23;;;8.80;99.90;;;;;;4993100;28;20046;-74
2022/09/27 04:34:09;;;;;;;9.13;0.80;;;8.80;99.90;;;;;;4992022;28;20084;-74
2022/09/27 04:36:35;;;;;;;8.73;1.00;;;8.80;99.90;;;;;;4979150;28;20517;-74
2022/09/27 04:39:03;;;;;;;7.47;0.83;;;8.80;99.90;;;;;;4981247;28;20118;-74
2022/09/27 04:41:30;;;;;;;8.30;0.60;;;8.90;99.90;;;;;;4987726;28;20045;-75
2022/09/27 04:43:56;;;;;;;5.80;0.67;;;8.90;99.90;;;;;;5009125;28;20137;-75
2022/09/27 04:46:23;;;;;;;7.70;0.67;;;9.00;99.90;;;;;;4974853;28;20482;-74
2022/09/27 04:48:50;;;;;;;5.27;0.70;;;9.10;99.90;;;;;;5006274;28;20133;-73
2022/09/27 04:51:16;;;;;;;2.93;0.40;;;9.00;99.90;;;;;;5007605;28;20050;-74
2022/09/27 04:53:46;;;;;;;4.50;0.90;;;8.90;99.90;;;;;;4989480;28;20584;-75
2022/09/27 04:56:13;;;;;;;5.97;0.70;;;9.10;99.90;;;;;;4981224;28;20046;-75
2022/09/27 04:58:39;;;;;;;4.47;0.70;;;8.90;99.90;;;;;;4982725;28;20050;-74
2022/09/27 05:01:05;;;;;;;7.50;0.70;;;9.00;99.90;;;;;;5007687;28;20576;-74
2022/09/27 05:03:31;;;;;;;8.73;0.97;;;9.00;99.90;;;;;;4988936;28;20046;-74
2022/09/27 05:05:58;;;;;;;8.90;0.60;;;8.90;99.90;;;;;;4968805;28;20049;-74
2022/09/27 05:08:24;;;;;;;7.33;0.90;;;8.80;99.90;;;;;;4991044;28;20149;-75
2022/09/27 05:10:49;;;;;;;12.07;0.93;;;8.80;99.90;;;;;;4990471;28;20053;-75
2022/09/27 05:13:17;;;;;;;5.43;0.83;;;8.80;99.90;;;;;;5004689;28;20390;-74
2022/09/27 05:15:43;;;;;;;4.23;0.70;;;8.80;99.90;;;;;;4981328;28;20497;-75
2022/09/27 05:18:09;;;;;;;7.70;0.70;;;8.80;99.90;;;;;;4966086;28;20053;-73
2022/09/27 05:20:35;;;;;;;8.40;0.80;;;8.80;99.90;;;;;;5005074;28;20402;-72
2022/09/27 05:23:03;;;;;;;2.80;0.50;;;8.70;99.90;;;;;;5006278;28;20052;-72
2022/09/27 05:25:30;;;;;;;3.63;0.57;;;8.70;99.90;;;;;;4983019;28;20400;-72
2022/09/27 05:27:57;;;;;;;4.77;1.03;;;8.70;99.90;;;;;;4988469;28;20477;-72
2022/09/27 05:30:24;;;;;;;3.33;0.53;;;8.80;99.90;;;;;;4972624;28;20405;-73
2022/09/27 05:32:49;;;;;;;12.10;0.97;;;8.90;99.90;;;;;;5007625;28;20073;-73
2022/09/27 05:35:19;;;;;;;8.77;0.87;;;8.80;99.90;;;;;;4973393;28;20096;-72
2022/09/27 05:37:52;;;;;;;11.00;1.30;;;8.90;99.90;;;;;;4957413;28;20783;-72
2022/09/27 05:40:17;;;;;;;8.80;1.20;;;9.10;99.90;;;;;;5007443;28;20108;-72
2022/09/27 05:42:43;;;;;;;6.97;1.00;;;8.90;99.90;;;;;;5006332;28;20053;-72
2022/09/27 05:45:09;;;;;;;7.27;0.90;;;9.00;99.90;;;;;;4987762;28;20129;-73
2022/09/27 05:47:35;;;;;;;5.63;0.80;;;9.00;99.90;;;;;;5006459;28;20046;-73
2022/09/27 05:50:00;;;;;;;4.83;0.70;;;8.90;99.90;;;;;;4990101;28;20116;-73
2022/09/27 05:52:26;;;;;;;6.10;0.80;;;8.80;99.90;;;;;;4992184;28;20551;-74
2022/09/27 05:54:52;;;;;;;9.03;1.00;;;8.90;99.90;;;;;;4991924;28;20038;-74
2022/09/27 05:57:17;;;;;;;9.20;0.80;;;9.00;99.90;;;;;;4991289;28;20060;-75
2022/09/27 05:59:43;;;;;;;7.07;0.70;;;9.00;99.90;;;;;;5008958;28;20100;-75
2022/09/27 06:02:10;;;;;;;5.03;0.80;;;8.90;99.90;;;;;;4992120;28;20037;-75
2022/09/27 06:04:36;;;;;;;5.90;1.00;;;8.90;99.90;;;;;;4992792;28;20092;-75
2022/09/27 06:07:02;;;;;;;4.63;0.60;;;9.00;99.90;;;;;;4977625;28;20077;-76
2022/09/27 06:09:28;;;;;;;5.50;0.93;;;9.00;99.90;;;;;;4990408;28;20413;-76
2022/09/27 06:11:53;;;;;;;10.83;1.03;;;8.90;99.90;;;;;;4987503;28;20052;-75
2022/09/27 06:14:19;;;;;;;5.90;0.93;;;9.00;99.90;;;;;;5013373;28;20052;-75
2022/09/27 06:16:45;;;;;;;4.13;0.97;;;9.00;99.90;;;;;;4978715;28;20077;-74
2022/09/27 06:19:11;;;;;;;9.03;0.90;;;8.80;99.90;;;;;;4975843;28;20116;-74
2022/09/27 06:21:36;;;;;;;6.47;1.03;;;8.80;99.90;;;;;;4986746;28;20058;-74
2022/09/27 06:24:03;;;;;;;6.77;0.87;;;8.80;99.90;;;;;;5013113;28;20120;-73
2022/09/27 06:26:28;;;;;;;5.23;0.67;;;8.80;99.90;;;;;;5013603;28;20052;-73
2022/09/27 06:28:54;;;;;;;7.33;0.90;;;8.80;99.90;;;;;;4994848;28;20132;-73
2022/09/27 06:31:20;;;;;;;3.37;0.63;;;8.80;99.90;;;;;;4993801;28;20092;-72
2022/09/27 06:33:47;;;;;;;7.30;0.43;;;8.70;99.90;;;;;;4993173;28;20516;-71
2022/09/27 06:36:14;;;;;;;3.77;1.13;;;8.70;99.90;;;;;;4985836;28;20493;-70
2022/09/27 06:38:39;;;;;;;6.37;0.80;;;8.80;99.90;;;;;;4957371;28;20046;-71
2022/09/27 06:41:05;;;;;;;7.00;1.07;;;8.80;99.90;;;;;;4989430;28;20096;-70
2022/09/27 06:43:32;;;;;;;3.90;0.70;;;8.70;99.90;;;;;;4971410;28;20037;-71
2022/09/27 06:46:04;;;;;;;5.50;0.70;;;8.80;99.90;;;;;;4985386;28;20081;-71
2022/09/27 06:48:30;;;;;;;3.55;0.47;;;8.80;99.90;;;;;;4984394;28;20118;-70
2022/09/27 06:50:56;;;;;;;7.10;0.93;;;8.90;99.90;;;;;;4985530;28;20444;-70
2022/09/27 06:53:23;;;;;;;7.00;0.80;;;8.90;99.90;;;;;;4987284;28;20578;-70
2022/09/27 06:55:50;;;;;;;3.70;0.87;;;9.00;99.90;;;;;;4986663;28;20054;-70
2022/09/27 07:01:01;;;;;;;5.70;0.87;;;9.00;99.90;;;;;;4984916;28;20081;-73
2022/09/27 07:03:30;;;;;;;3.67;0.60;;;8.90;99.90;;;;;;4983772;28;20073;-73
2022/09/27 07:06:01;;;;;;;4.40;0.63;;;9.00;99.90;;;;;;4986663;28;20590;-73
2022/09/27 07:08:28;;;;;;;9.45;0.80;;;8.90;99.90;;;;;;4984010;28;20096;-73
2022/09/27 07:10:59;;;;;;;5.20;0.80;;;9.00;99.90;;;;;;4986777;28;20060;-73
2022/09/27 07:13:29;;;;;;;6.25;0.90;;;9.10;99.90;;;;;;4987212;28;20065;-73
2022/09/27 07:15:54;;;;;;;7.47;1.13;;;9.20;99.90;;;;;;4988865;28;20107;-73
2022/09/27 07:18:20;;;;;;;5.93;0.93;;;9.00;99.90;;;;;;4985413;28;20046;-72
2022/09/27 07:20:45;;;;;;;5.17;0.80;;;9.10;99.90;;;;;;4983977;28;20061;-73
2022/09/27 07:23:13;;;;;;;6.43;0.60;;;9.30;99.90;;;;;;4969179;28;20137;-73
2022/09/27 07:25:38;;;;;;;3.17;0.60;;;9.30;99.90;;;;;;4972795;28;20081;-71
2022/09/27 07:28:07;;;;;;;5.83;0.50;;;9.40;99.90;;;;;;5002537;28;20076;-72
2022/09/27 07:30:34;;;;;;;4.90;0.60;;;9.40;99.90;;;;;;4983206;28;20042;-74
2022/09/27 07:33:01;;;;;;;3.07;0.50;;;9.40;99.90;;;;;;4986533;28;20318;-73
2022/09/27 07:35:27;;;;;;;1.77;0.40;;;9.30;99.90;;;;;;4984694;28;20490;-72
2022/09/27 07:37:55;;;;;;;3.17;0.50;;;9.20;99.90;;;;;;4982504;28;20065;-72
2022/09/27 07:40:22;;;;;;;4.10;0.53;;;9.20;99.90;;;;;;4983731;28;20054;-72
2022/09/27 07:42:53;;;;;;;4.83;0.60;;;9.20;99.90;;;;;;4984789;28;20046;-75
2022/09/27 07:45:18;;;;;;;2.47;0.65;;;9.20;99.90;;;;;;4990004;28;20045;-75
2022/09/27 07:47:44;;;;;;;4.20;0.60;;;9.20;99.90;;;;;;4985200;28;20049;-74
2022/09/27 07:50:10;;;;;;;4.47;0.50;;;9.10;99.90;;;;;;4966911;28;20128;-73
2022/09/27 07:52:40;;;;;;;5.60;0.57;;;9.00;99.90;;;;;;4968277;28;20528;-74
2022/09/27 07:55:08;;;;;;;3.63;0.30;;;9.00;99.90;;;;;;4983040;28;20042;-75
2022/09/27 07:57:33;;;;;;;2.00;0.47;;;9.10;99.90;;;;;;4993342;28;20147;-76
2022/09/27 07:59:59;;;;;;;3.87;0.40;;;9.00;99.90;;;;;;4977300;28;20120;-77
2022/09/27 08:02:25;;;;;;;2.23;0.40;;;9.00;99.90;;;;;;4993573;28;20057;-77
2022/09/27 08:04:52;;;;;;;3.10;0.30;;;9.10;99.90;;;;;;4977613;28;20120;-77
2022/09/27 08:07:17;;;;;;;3.03;0.30;;;9.20;99.90;;;;;;4977348;28;20270;-74
2022/09/27 08:09:43;;;;;;;4.77;0.43;;;9.30;99.90;;;;;;4980475;28;20078;-73
2022/09/27 08:12:09;;;;;;;4.10;0.80;;;9.30;99.90;;;;;;4971250;28;20049;-73
2022/09/27 08:14:35;;;;;;;2.83;0.33;;;9.30;99.90;;;;;;4987546;28;20057;-72
2022/09/27 08:17:01;;;;;;;5.30;0.40;;;9.40;99.90;;;;;;4981367;28;20046;-71
2022/09/27 08:19:26;;;;;;;1.80;0.43;;;9.60;99.90;;;;;;4993512;28;20486;-71
2022/09/27 08:21:55;;;;;;;3.93;0.60;;;9.60;99.90;;;;;;4988342;28;20100;-71
2022/09/27 08:24:21;;;;;;;5.00;1.00;;;9.60;99.90;;;;;;4965302;28;20108;-71
2022/09/27 08:26:46;;;;;;;5.97;0.87;;;9.80;99.90;;;;;;4992537;28;20458;-72
2022/09/27 08:29:12;;;;;;;5.40;0.87;;;9.70;99.90;;;;;;4990004;28;20133;-73
2022/09/27 08:31:38;;;;;;;5.77;0.73;;;9.80;99.90;;;;;;4881162;28;20041;-73
2022/09/27 08:34:04;;;;;;;7.93;1.07;;;9.80;99.90;;;;;;4904649;28;20448;-73
2022/09/27 08:36:30;;;;;;;4.40;0.60;;;9.70;99.90;;;;;;4964291;28;20042;-73
2022/09/27 08:38:58;;;;;;;3.50;0.88;;;9.70;99.90;;;;;;5002013;28;20046;-72
2022/09/27 08:42:01;;;;;;;6.00;0.53;;;9.70;99.90;;;;;;5010635;28;20054;-72
2022/09/27 08:44:32;;;;;;;9.20;1.17;;;9.70;99.90;;;;;;4988922;28;20485;-71
2022/09/27 08:47:24;;;;;;;6.78;0.70;;;9.80;99.90;;;;;;4989427;28;20053;-71
2022/09/27 08:49:53;;;;;;;;;;;9.80;99.90;;;;;;4947024;28;20516;-70
2022/09/27 08:52:30;;;;;;;7.00;2.47;;;9.80;99.90;;;;;;5010009;28;19926;-70
2022/09/27 08:55:00;;;;;;;4.03;0.83;;;9.90;99.90;;;;;;5005807;28;20046;-70
2022/09/27 08:57:25;;;;;;;4.10;1.03;;;10.00;99.90;;;;;;4974326;28;20042;-70
2022/09/27 09:00:00;;;;;;;3.70;0.70;;;9.90;99.90;;;;;;4978211;28;20183;-70
2022/09/27 09:02:26;;;;;;;7.20;0.60;;;10.00;99.90;;;;;;4991838;28;20046;-70
2022/09/27 09:04:57;;;;;;;4.97;0.70;;;10.00;99.90;;;;;;4993072;28;20048;-70
2022/09/27 09:07:35;;;;;;;2.58;0.30;;;10.10;99.90;;;;;;4976379;28;20034;-70
2022/09/27 09:12:45;;;;;;;5.00;0.90;;;10.30;99.90;;;;;;4992553;28;20061;-70
2022/09/27 09:13:33;;;;;;;4.83;0.70;;;10.30;99.90;;;;;;4983774;28;20046;-71
2022/09/27 09:16:08;;;;;;;3.60;0.50;;;10.50;99.90;;;;;;4992603;28;20128;-71
2022/09/27 09:18:57;;;;;;;4.00;0.10;;;10.30;99.90;;;;;;4967484;28;20054;-71
2022/09/27 09:21:49;;;;;;;3.70;0.20;;;10.10;99.90;;;;;;4992430;28;20115;-71
2022/09/27 09:24:36;;;;;;;1.97;0.20;;;10.00;99.90;;;;;;4977815;28;20044;-75
2022/09/27 09:27:07;;;;;;;1.55;0.30;;;9.90;99.90;;;;;;4964504;28;20057;-69
2022/09/27 09:29:42;;;;;;;2.53;0.28;;;9.90;99.90;;;;;;4996250;28;20146;-72
2022/09/27 09:32:26;;;;;;;1.45;0.20;;;9.90;99.90;;;;;;5008069;28;20050;-72
2022/09/27 09:35:13;;;;;;;2.35;0.20;;;10.00;99.90;;;;;;4995577;28;20532;-73
2022/09/27 09:37:49;;;;;;;3.17;0.20;;;9.80;99.90;;;;;;4998535;28;20137;-74
2022/09/27 09:40:37;;;;;;;1.92;0.10;;;9.80;99.90;;;;;;4996633;28;20053;-72
2022/09/27 09:43:19;;;;;;;2.33;0.00;;;9.80;99.90;;;;;;4994865;28;20065;-73
2022/09/27 09:45:50;;;;;;;2.43;0.10;;;9.80;99.90;;;;;;4999487;28;20081;-74
2022/09/27 09:48:29;;;;;;;1.50;0.00;;;9.70;99.90;;;;;;4983585;28;20077;-75
2022/09/27 09:50:59;;;;;;;1.70;0.10;;;9.70;99.90;;;;;;5014201;28;20370;-75
2022/09/27 09:53:41;;;;;;;2.70;0.10;;;9.70;99.90;;;;;;4995327;28;20502;-74
2022/09/27 09:56:21;;;;;;;1.10;0.10;;;9.70;99.90;;;;;;5007202;28;20103;-75
2022/09/27 09:59:03;;;;;;;2.83;0.10;;;9.70;99.90;;;;;;4992055;28;20053;-74
2022/09/27 10:01:33;;;;;;;;;;;9.80;99.90;;;;;;4996561;28;20502;-73
2022/09/27 10:03:59;;;;;;;3.53;0.30;;;9.90;99.90;;;;;;4995236;28;19925;-74
2022/09/27 10:06:26;;;;;;;3.67;0.40;;;10.00;99.90;;;;;;4983845;28;20955;-73
2022/09/27 10:08:54;;;;;;;4.40;0.20;;;10.00;99.90;;;;;;4996848;28;20169;-73
2022/09/27 10:11:34;;;;;;;4.22;0.40;;;10.10;99.90;;;;;;4979427;28;20057;-72
2022/09/27 10:14:00;;;;;;;1.20;0.20;;;10.30;99.90;;;;;;4997356;28;20050;-72
2022/09/27 10:16:28;;;;;;;3.42;0.30;;;10.50;99.90;;;;;;5004943;28;20508;-73
2022/09/27 10:18:59;;;;;;;3.35;0.20;;;10.50;99.90;;;;;;5009285;28;20049;-71
2022/09/27 10:21:28;;;;;;;2.08;0.10;;;10.50;99.90;;;;;;4995571;28;20112;-72
2022/09/27 10:24:13;;;;;;;2.70;0.20;;;10.40;99.90;;;;;;4994821;28;20479;-72
2022/09/27 10:26:42;;;;;;;1.95;0.20;;;10.30;99.90;;;;;;4999479;28;20050;-74
2022/09/27 10:29:35;;;;;;;2.23;0.20;;;10.30;99.90;;;;;;4992156;28;20046;-75
2022/09/27 10:32:03;;;;;;;3.00;0.17;;;10.20;99.90;;;;;;5003208;28;20405;-74
2022/09/27 10:34:36;;;;;;;2.60;0.35;;;10.10;99.90;;;;;;4986654;28;20064;-74
2022/09/27 10:37:10;;;;;;;2.88;0.20;;;10.00;99.90;;;;;;4979814;28;20596;-74
2022/09/27 10:39:37;;;;;;;1.75;0.00;;;10.00;99.90;;;;;;4986706;28;20061;-74
2022/09/27 10:42:18;;;;;;;3.45;0.10;;;9.70;99.90;;;;;;5010435;28;20202;-74
2022/09/27 10:44:44;;;;;;;2.65;0.08;;;9.60;99.90;;;;;;5007867;28;20129;-74
2022/09/27 10:47:18;;;;;;;1.07;0.10;;;9.60;99.90;;;;;;4956400;28;20065;-73
2022/09/27 10:49:44;;;;;;;1.17;0.15;;;9.40;99.90;;;;;;5009168;28;20508;-73
2022/09/27 10:52:23;;;;;;;1.65;0.10;;;9.30;99.90;;;;;;4988884;28;20041;-72
2022/09/27 10:55:14;;;;;;;1.93;0.10;;;9.30;99.90;;;;;;4990659;28;20057;-73
2022/09/27 10:57:47;;;;;;;4.03;0.50;;;9.20;99.90;;;;;;4975909;28;20417;-74
2022/09/27 11:00:18;;;;;;;1.90;1.00;;;9.10;99.90;;;;;;5009014;28;20052;-74
2022/09/27 11:02:52;;;;;;;5.10;1.33;;;9.20;99.90;;;;;;4990185;28;20591;-75
2022/09/27 11:05:28;;;;;;;3.35;1.23;;;9.20;99.90;;;;;;5010417;28;20456;-75
2022/09/27 11:08:00;;;;;;;5.70;1.43;;;9.20;99.90;;;;;;4975698;28;20056;-75
2022/09/27 11:10:30;;;;;;;1.10;0.60;;;9.20;99.90;;;;;;4992649;28;20117;-74
2022/09/27 11:13:16;;;;;;;2.67;0.40;;;9.30;99.90;;;;;;4970239;28;20038;-74
2022/09/27 11:16:15;;;;;;;1.57;0.20;;;9.20;99.90;;;;;;5007565;28;20053;-74
2022/09/27 11:18:56;;;;;;;1.47;0.13;;;9.20;99.90;;;;;;4994028;28;20046;-74
2022/09/27 11:21:32;;;;;;;2.00;0.10;;;9.30;99.90;;;;;;5002419;28;20160;-73
2022/09/27 11:24:35;;;;;;;2.53;0.80;;;9.50;99.90;;;;;;5004156;28;20054;-73
2022/09/27 11:27:20;;;;;;;4.00;0.95;;;9.70;99.90;;;;;;4973757;28;20585;-72
2022/09/27 11:30:10;;;;;;;2.67;0.40;;;9.90;99.90;;;;;;4989296;28;20046;-72
2022/09/27 11:33:13;;;;;;;3.67;0.90;;;10.20;99.90;;;;;;4986389;28;20064;-72
2022/09/27 11:36:14;;;;;;;4.53;0.43;;;10.40;99.90;;;;;;4997082;28;20054;-72
2022/09/27 11:38:49;;;;;;;3.33;0.40;;;10.70;99.90;;;;;;5001205;28;20073;-73
2022/09/27 11:41:35;;;;;;;0.67;0.00;;;10.70;99.90;;;;;;5006970;28;20053;-74
2022/09/27 11:44:30;;;;;;;1.10;0.13;;;10.30;99.90;;;;;;4989301;28;20088;-74
2022/09/27 11:47:05;;;;;;;1.25;0.00;;;10.10;99.90;;;;;;4960169;28;20054;-74
2022/09/27 11:50:09;;;;;;;1.85;0.10;;;10.00;99.90;;;;;;4992564;28;20505;-75
2022/09/27 11:53:00;;;;;;;0.93;0.03;;;10.00;99.90;;;;;;4993123;28;20547;-77
2022/09/27 11:55:36;;;;;;;2.53;0.20;;;10.00;99.90;;;;;;4969463;28;20042;-76
2022/09/27 11:58:25;;;;;;;1.23;0.10;;;9.90;99.90;;;;;;4942044;28;20050;-75
2022/09/27 12:00:50;;;;;;;1.08;0.20;;;9.90;99.90;;;;;;4992844;28;20049;-76
2022/09/27 12:03:41;;;;;;;1.05;0.10;;;10.00;99.90;;;;;;5010475;28;20053;-75
2022/09/27 12:06:41;;;;;;;3.83;0.13;;;9.90;99.90;;;;;;4972133;28;20131;-75
2022/09/27 12:09:21;;;;;;;2.35;0.30;;;9.90;99.90;;;;;;4976714;28;20297;-75
2022/09/27 12:12:00;;;;;;;1.67;0.10;;;10.10;99.90;;;;;;4977471;28;20065;-75
2022/09/27 12:14:42;;;;;;;3.53;0.30;;;10.20;99.90;;;;;;4974124;28;20069;-74
2022/09/27 12:17:22;;;;;;;3.10;0.32;;;10.20;99.90;;;;;;4975934;28;20050;-74
2022/09/27 12:19:52;;;;;;;7.00;0.50;;;10.40;99.90;;;;;;4993405;28;20050;-73
2022/09/27 12:22:51;;;;;;;5.80;0.52;;;10.50;99.90;;;;;;4992483;28;20057;-72
2022/09/27 12:25:18;;;;;;;7.00;0.55;;;10.60;99.90;;;;;;4967306;28;20053;-73
2022/09/27 12:27:56;;;;;;;3.88;0.40;;;10.70;99.90;;;;;;4970349;28;20548;-72
2022/09/27 12:30:22;;;;;;;3.55;0.45;;;10.80;99.90;;;;;;5002261;28;20053;-74
2022/09/27 12:32:56;;;;;;;6.63;0.40;;;10.90;99.90;;;;;;4979125;28;20050;-73
2022/09/27 12:35:33;;;;;;;4.93;0.43;;;10.90;99.90;;;;;;4992038;28;20073;-73
2022/09/27 12:38:03;;;;;;;2.25;0.20;;;10.90;99.90;;;;;;4976786;28;20045;-73
2022/09/27 12:40:39;;;;;;;1.55;0.30;;;10.90;99.90;;;;;;4993319;28;20547;-73
2022/09/27 12:43:30;;;;;;;5.35;0.30;;;10.80;99.90;;;;;;4975920;28;20052;-73
2022/09/27 12:46:23;;;;;;;1.73;0.10;;;10.80;99.90;;;;;;5010123;28;20460;-72
2022/09/27 12:48:49;;;;;;;1.55;0.10;;;10.80;99.90;;;;;;4981144;28;20046;-73
2022/09/27 12:51:17;;;;;;;2.45;0.10;;;10.80;99.90;;;;;;4986992;28;20053;-72
2022/09/27 12:54:13;;;;;;;3.20;0.10;;;10.70;99.90;;;;;;4984046;28;20104;-73
2022/09/27 12:56:56;;;;;;;2.13;0.20;;;10.70;99.90;;;;;;4965257;28;20133;-73
2022/09/27 13:00:11;;;;;;;3.45;0.20;;;10.60;99.90;;;;;;4984230;28;20050;-73
2022/09/27 13:02:57;;;;;;;1.52;0.15;;;10.60;99.90;;;;;;4935214;28;20821;-73
2022/09/27 13:05:54;;;;;;;2.40;0.20;;;10.60;99.90;;;;;;5007382;28;20393;-72
2022/09/27 13:08:35;;;;;;;2.38;0.10;;;10.60;99.90;;;;;;4971128;28;20046;-73
2022/09/27 13:11:26;;;;;;;2.40;0.20;;;10.60;99.90;;;;;;4985996;28;20049;-74
2022/09/27 13:14:01;;;;;;;2.47;0.10;;;10.50;99.90;;;;;;4987801;28;20653;-74
2022/09/27 13:16:27;;;;;;;2.47;0.25;;;10.30;99.90;;;;;;4975945;28;20081;-73
2022/09/27 13:18:54;;;;;;;2.33;0.20;;;10.20;99.90;;;;;;4966372;28;20044;-73
2022/09/27 13:21:48;;;;;;;1.60;0.20;;;10.20;99.90;;;;;;4987244;28;20089;-75
2022/09/27 13:24:36;;;;;;;4.40;0.20;;;9.80;99.90;;;;;;4999623;28;20116;-73
2022/09/27 13:27:22;;;;;;;1.65;0.15;;;9.70;99.90;;;;;;4981908;28;20081;-72